sensor_id;sensor_type;location;lat;lon;timestamp;P1;durP1;ratioP1;P2;durP2;ratioP2
38190;SDS011;25191;47.510;19.124;2024-01-11T00:14:42;20.00;;;14.10;;
38190;SDS011;25191;47.510;19.124;2024-01-11T00:34:43;20.55;;;14.73;;
38190;SDS011;25191;47.510;19.124;2024-01-11T00:54:43;20.35;;;14.13;;
38190;SDS011;25191;47.510;19.124;2024-01-11T01:14:44;21.95;;;15.65;;
38190;SDS011;25191;47.510;19.124;2024-01-11T01:34:44;23.10;;;16.25;;
38190;SDS011;25191;47.510;19.124;2024-01-11T01:54:45;22.42;;;16.75;;
38190;SDS011;25191;47.510;19.124;2024-01-11T02:14:47;25.90;;;17.35;;
38190;SDS011;25191;47.510;19.124;2024-01-11T02:34:47;25.35;;;17.88;;
38190;SDS011;25191;47.510;19.124;2024-01-11T02:54:48;25.10;;;17.70;;
38190;SDS011;25191;47.510;19.124;2024-01-11T03:14:49;26.58;;;18.05;;
38190;SDS011;25191;47.510;19.124;2024-01-11T03:34:49;26.13;;;17.98;;
38190;SDS011;25191;47.510;19.124;2024-01-11T03:54:50;26.60;;;18.38;;
38190;SDS011;25191;47.510;19.124;2024-01-11T04:14:50;26.27;;;18.38;;
38190;SDS011;25191;47.510;19.124;2024-01-11T04:34:52;27.25;;;19.52;;
38190;SDS011;25191;47.510;19.124;2024-01-11T04:54:53;28.30;;;18.58;;
38190;SDS011;25191;47.510;19.124;2024-01-11T05:14:55;27.95;;;19.08;;
38190;SDS011;25191;47.510;19.124;2024-01-11T05:34:55;32.10;;;18.63;;
38190;SDS011;25191;47.510;19.124;2024-01-11T05:54:58;30.33;;;19.27;;
38190;SDS011;25191;47.510;19.124;2024-01-11T06:14:59;48.25;;;25.60;;
38190;SDS011;25191;47.510;19.124;2024-01-11T06:35:00;38.80;;;23.88;;
38190;SDS011;25191;47.510;19.124;2024-01-11T06:55:02;39.00;;;22.60;;
38190;SDS011;25191;47.510;19.124;2024-01-11T07:15:02;32.33;;;20.00;;
38190;SDS011;25191;47.510;19.124;2024-01-11T07:35:05;30.27;;;18.48;;
38190;SDS011;25191;47.510;19.124;2024-01-11T07:55:06;25.77;;;17.08;;
38190;SDS011;25191;47.510;19.124;2024-01-11T08:15:07;24.85;;;15.00;;
38190;SDS011;25191;47.510;19.124;2024-01-11T08:35:12;21.08;;;14.43;;
38190;SDS011;25191;47.510;19.124;2024-01-11T08:55:13;19.02;;;12.95;;
38190;SDS011;25191;47.510;19.124;2024-01-11T09:15:13;16.55;;;12.27;;
38190;SDS011;25191;47.510;19.124;2024-01-11T09:35:15;14.05;;;10.38;;
38190;SDS011;25191;47.510;19.124;2024-01-11T09:55:16;12.95;;;8.60;;
38190;SDS011;25191;47.510;19.124;2024-01-11T10:15:17;12.13;;;8.75;;
38190;SDS011;25191;47.510;19.124;2024-01-11T10:35:18;11.05;;;7.93;;
38190;SDS011;25191;47.510;19.124;2024-01-11T10:55:18;10.25;;;7.70;;
38190;SDS011;25191;47.510;19.124;2024-01-11T11:15:19;13.00;;;6.65;;
38190;SDS011;25191;47.510;19.124;2024-01-11T11:35:24;8.23;;;6.30;;
38190;SDS011;25191;47.510;19.124;2024-01-11T11:55:25;9.90;;;6.43;;
38190;SDS011;25191;47.510;19.124;2024-01-11T12:15:28;8.15;;;6.22;;
38190;SDS011;25191;47.510;19.124;2024-01-11T12:35:31;9.45;;;6.22;;
38190;SDS011;25191;47.510;19.124;2024-01-11T12:55:33;9.05;;;5.85;;
38190;SDS011;25191;47.510;19.124;2024-01-11T13:15:34;9.32;;;6.15;;
38190;SDS011;25191;47.510;19.124;2024-01-11T13:35:36;8.80;;;6.30;;
38190;SDS011;25191;47.510;19.124;2024-01-11T13:55:37;10.48;;;5.78;;
38190;SDS011;25191;47.510;19.124;2024-01-11T14:15:38;9.57;;;5.75;;
38190;SDS011;25191;47.510;19.124;2024-01-11T14:35:39;8.15;;;4.95;;
38190;SDS011;25191;47.510;19.124;2024-01-11T14:55:40;9.85;;;5.18;;
38190;SDS011;25191;47.510;19.124;2024-01-11T15:15:40;6.35;;;4.78;;
38190;SDS011;25191;47.510;19.124;2024-01-11T15:35:41;11.93;;;5.60;;
38190;SDS011;25191;47.510;19.124;2024-01-11T15:55:41;9.43;;;5.30;;
38190;SDS011;25191;47.510;19.124;2024-01-11T16:15:42;10.95;;;7.35;;
38190;SDS011;25191;47.510;19.124;2024-01-11T16:35:43;8.00;;;5.80;;
38190;SDS011;25191;47.510;19.124;2024-01-11T16:55:47;9.05;;;6.40;;
38190;SDS011;25191;47.510;19.124;2024-01-11T17:15:49;10.07;;;6.38;;
38190;SDS011;25191;47.510;19.124;2024-01-11T17:35:49;9.52;;;7.03;;
38190;SDS011;25191;47.510;19.124;2024-01-11T17:55:51;12.48;;;8.15;;
38190;SDS011;25191;47.510;19.124;2024-01-11T18:15:51;11.57;;;8.40;;
38190;SDS011;25191;47.510;19.124;2024-01-11T18:35:52;12.45;;;9.70;;
38190;SDS011;25191;47.510;19.124;2024-01-11T18:55:55;13.32;;;9.00;;
38190;SDS011;25191;47.510;19.124;2024-01-11T19:15:57;21.67;;;9.98;;
38190;SDS011;25191;47.510;19.124;2024-01-11T19:35:59;18.17;;;11.32;;
38190;SDS011;25191;47.510;19.124;2024-01-11T19:55:59;21.95;;;12.13;;
38190;SDS011;25191;47.510;19.124;2024-01-11T20:16:01;19.83;;;12.68;;
38190;SDS011;25191;47.510;19.124;2024-01-11T20:36:01;21.55;;;12.55;;
38190;SDS011;25191;47.510;19.124;2024-01-11T21:16:17;18.23;;;10.68;;
38190;SDS011;25191;47.510;19.124;2024-01-11T21:36:18;15.00;;;10.70;;
38190;SDS011;25191;47.510;19.124;2024-01-11T21:56:25;14.38;;;10.65;;
38190;SDS011;25191;47.510;19.124;2024-01-11T22:16:26;11.68;;;8.90;;
38190;SDS011;25191;47.510;19.124;2024-01-11T22:36:26;12.73;;;8.85;;
38190;SDS011;25191;47.510;19.124;2024-01-11T22:56:28;13.35;;;9.25;;
38190;SDS011;25191;47.510;19.124;2024-01-11T23:16:30;12.45;;;8.77;;
38190;SDS011;25191;47.510;19.124;2024-01-11T23:36:32;12.40;;;8.25;;
38190;SDS011;25191;47.510;19.124;2024-01-11T23:56:34;10.45;;;7.90;;
